PAED METAR and TAF weather

Enter ICAO airport designator
Station Type Date Time Source
PAED METAR 2020/07/09 22:56 UTC NOAA

PAED 092256Z 23006KT 10SM OVC021 17/12 A2972 RMK AO2A SLP060 T01650124 $


Station Type Date Time Source
PAED Decoded METAR 2020/07/09 22:56 UTC NOAA

Anchorage, Elmendorf Air Force Base, AK, United States (PAED) 61-15-11N 149-47-38W 59M
Jul 09, 2020 - 06:56 PM EDT / 2020.07.09 2256 UTC
Wind: from the SW (230 degrees) at 7 MPH (6 KT):0
Visibility: 10 mile(s):0
Sky conditions: overcast
Temperature: 61.7 F (16.5 C)
Dew Point: 54.3 F (12.4 C)
Relative Humidity: 76%
Pressure (altimeter): 29.72 in. Hg (1006 hPa)
ob: PAED 092256Z 23006KT 10SM OVC021 17/12 A2972 RMK AO2A SLP060 T01650124
cycle: 23

Station Type Date Time Source
PAED TAF 2020/07/09 20:05 UTC NOAA

TAF
AMD PAED 092054Z 0920/1100 VRB06KT 9999 FEW008 BKN010 OVC020 QNH2970INS
BECMG 0921/0922 VRB06KT 9999 SCT010 OVC020 QNH2967INS
BECMG 1000/1001 VRB06KT 9999 FEW035 BKN080 QNH2966INS
BECMG 1007/1008 VRB06KT 8000 -SHRA SCT015 OVC020 QNH2969INS
BECMG 1013/1014 VRB06KT 8000 BR BKN020 OVC080 QNH2970INS
BECMG 1021/1022 VRB06KT 8000 SHRA OVC020 QNH2969INS TX18/1002Z TN15/0920Z

Example: see airport list